sensor_id;sensor_type;location;lat;lon;timestamp;temperature;humidity
14119;DHT22;7138;49.246;9.100;2023-02-23T00:01:56;8.30;99.90
14119;DHT22;7138;49.246;9.100;2023-02-23T00:04:31;8.30;99.90
14119;DHT22;7138;49.246;9.100;2023-02-23T00:06:57;8.20;99.90
14119;DHT22;7138;49.246;9.100;2023-02-23T00:09:23;8.20;99.90
14119;DHT22;7138;49.246;9.100;2023-02-23T00:11:50;8.20;99.90
14119;DHT22;7138;49.246;9.100;2023-02-23T00:14:18;8.10;99.90
14119;DHT22;7138;49.246;9.100;2023-02-23T00:16:45;8.20;99.90
14119;DHT22;7138;49.246;9.100;2023-02-23T00:19:11;8.10;99.90
14119;DHT22;7138;49.246;9.100;2023-02-23T00:21:39;8.10;99.90
14119;DHT22;7138;49.246;9.100;2023-02-23T00:24:07;8.10;99.90
14119;DHT22;7138;49.246;9.100;2023-02-23T00:26:35;8.10;99.90
14119;DHT22;7138;49.246;9.100;2023-02-23T00:29:06;8.10;99.90
14119;DHT22;7138;49.246;9.100;2023-02-23T00:31:33;8.10;99.90
14119;DHT22;7138;49.246;9.100;2023-02-23T00:34:02;8.10;99.90
14119;DHT22;7138;49.246;9.100;2023-02-23T00:36:31;8.10;99.90
14119;DHT22;7138;49.246;9.100;2023-02-23T00:38:59;8.00;99.90
14119;DHT22;7138;49.246;9.100;2023-02-23T00:41:27;8.00;99.90
14119;DHT22;7138;49.246;9.100;2023-02-23T00:43:54;8.00;99.90
14119;DHT22;7138;49.246;9.100;2023-02-23T00:46:24;8.00;99.90
14119;DHT22;7138;49.246;9.100;2023-02-23T00:48:51;8.00;99.90
14119;DHT22;7138;49.246;9.100;2023-02-23T00:51:24;8.00;99.90
14119;DHT22;7138;49.246;9.100;2023-02-23T00:53:52;8.00;99.90
14119;DHT22;7138;49.246;9.100;2023-02-23T00:56:19;8.00;99.90
14119;DHT22;7138;49.246;9.100;2023-02-23T00:58:46;8.00;99.90
14119;DHT22;7138;49.246;9.100;2023-02-23T01:01:13;8.00;99.90
14119;DHT22;7138;49.246;9.100;2023-02-23T01:03:41;7.90;99.90
14119;DHT22;7138;49.246;9.100;2023-02-23T01:06:10;7.90;99.90
14119;DHT22;7138;49.246;9.100;2023-02-23T01:08:40;7.80;99.90
14119;DHT22;7138;49.246;9.100;2023-02-23T01:11:08;7.80;99.90
14119;DHT22;7138;49.246;9.100;2023-02-23T01:13:37;7.80;99.90
14119;DHT22;7138;49.246;9.100;2023-02-23T01:16:05;7.80;99.90
14119;DHT22;7138;49.246;9.100;2023-02-23T01:18:32;7.80;99.90
14119;DHT22;7138;49.246;9.100;2023-02-23T01:21:02;7.80;99.90
14119;DHT22;7138;49.246;9.100;2023-02-23T01:23:30;7.80;99.90
14119;DHT22;7138;49.246;9.100;2023-02-23T01:25:58;7.70;99.90
14119;DHT22;7138;49.246;9.100;2023-02-23T01:28:24;7.80;99.90
14119;DHT22;7138;49.246;9.100;2023-02-23T01:30:50;7.80;99.90
14119;DHT22;7138;49.246;9.100;2023-02-23T01:33:16;7.70;99.90
14119;DHT22;7138;49.246;9.100;2023-02-23T01:35:41;7.80;99.90
14119;DHT22;7138;49.246;9.100;2023-02-23T01:38:08;7.80;99.90
14119;DHT22;7138;49.246;9.100;2023-02-23T01:40:34;7.70;99.90
14119;DHT22;7138;49.246;9.100;2023-02-23T01:43:12;7.80;99.90
14119;DHT22;7138;49.246;9.100;2023-02-23T01:45:42;7.80;99.90
14119;DHT22;7138;49.246;9.100;2023-02-23T01:48:12;7.70;99.90
14119;DHT22;7138;49.246;9.100;2023-02-23T01:50:44;7.80;99.90
14119;DHT22;7138;49.246;9.100;2023-02-23T01:53:17;7.80;99.90
14119;DHT22;7138;49.246;9.100;2023-02-23T01:55:46;7.70;99.90
14119;DHT22;7138;49.246;9.100;2023-02-23T01:58:18;7.70;99.90
14119;DHT22;7138;49.246;9.100;2023-02-23T02:00:48;7.80;99.90
14119;DHT22;7138;49.246;9.100;2023-02-23T02:03:21;7.80;99.90
14119;DHT22;7138;49.246;9.100;2023-02-23T02:05:53;7.80;99.90
14119;DHT22;7138;49.246;9.100;2023-02-23T02:08:19;7.80;99.90
14119;DHT22;7138;49.246;9.100;2023-02-23T02:10:48;7.80;99.90
14119;DHT22;7138;49.246;9.100;2023-02-23T02:13:23;7.80;99.90
14119;DHT22;7138;49.246;9.100;2023-02-23T02:19:38;7.70;99.90
14119;DHT22;7138;49.246;9.100;2023-02-23T02:26:01;7.80;99.90
14119;DHT22;7138;49.246;9.100;2023-02-23T02:28:52;7.80;99.90
14119;DHT22;7138;49.246;9.100;2023-02-23T02:38:29;7.80;99.90
14119;DHT22;7138;49.246;9.100;2023-02-23T02:41:06;7.80;99.90
14119;DHT22;7138;49.246;9.100;2023-02-23T02:43:44;7.80;99.90
14119;DHT22;7138;49.246;9.100;2023-02-23T02:46:17;7.80;99.90
14119;DHT22;7138;49.246;9.100;2023-02-23T02:48:52;7.80;99.90
14119;DHT22;7138;49.246;9.100;2023-02-23T02:51:27;7.80;99.90
14119;DHT22;7138;49.246;9.100;2023-02-23T02:54:04;7.80;99.90
14119;DHT22;7138;49.246;9.100;2023-02-23T02:56:37;7.90;99.90
14119;DHT22;7138;49.246;9.100;2023-02-23T02:59:08;7.80;99.90
14119;DHT22;7138;49.246;9.100;2023-02-23T03:01:56;7.90;99.90
14119;DHT22;7138;49.246;9.100;2023-02-23T03:04:41;7.90;99.90
14119;DHT22;7138;49.246;9.100;2023-02-23T03:07:28;7.90;99.90
14119;DHT22;7138;49.246;9.100;2023-02-23T03:10:24;7.90;99.90
14119;DHT22;7138;49.246;9.100;2023-02-23T03:13:30;7.90;99.90
14119;DHT22;7138;49.246;9.100;2023-02-23T03:16:31;7.90;99.90
14119;DHT22;7138;49.246;9.100;2023-02-23T03:19:25;7.90;99.90
14119;DHT22;7138;49.246;9.100;2023-02-23T03:22:20;7.90;99.90
14119;DHT22;7138;49.246;9.100;2023-02-23T03:25:10;7.90;99.90
14119;DHT22;7138;49.246;9.100;2023-02-23T03:28:06;7.90;99.90
14119;DHT22;7138;49.246;9.100;2023-02-23T03:31:02;7.90;99.90
14119;DHT22;7138;49.246;9.100;2023-02-23T03:34:08;7.90;99.90
14119;DHT22;7138;49.246;9.100;2023-02-23T03:37:02;7.90;99.90
14119;DHT22;7138;49.246;9.100;2023-02-23T03:39:58;8.00;99.90
14119;DHT22;7138;49.246;9.100;2023-02-23T03:42:51;8.00;99.90
14119;DHT22;7138;49.246;9.100;2023-02-23T03:45:41;8.00;99.90
14119;DHT22;7138;49.246;9.100;2023-02-23T03:48:29;8.00;99.90
14119;DHT22;7138;49.246;9.100;2023-02-23T03:51:16;8.00;99.90
14119;DHT22;7138;49.246;9.100;2023-02-23T03:54:08;8.00;99.90
14119;DHT22;7138;49.246;9.100;2023-02-23T03:56:59;8.00;99.90
14119;DHT22;7138;49.246;9.100;2023-02-23T03:59:49;8.10;99.90
14119;DHT22;7138;49.246;9.100;2023-02-23T04:02:40;8.10;99.90
14119;DHT22;7138;49.246;9.100;2023-02-23T04:05:28;8.10;99.90
14119;DHT22;7138;49.246;9.100;2023-02-23T04:08:17;8.10;99.90
14119;DHT22;7138;49.246;9.100;2023-02-23T04:11:07;8.10;99.90
14119;DHT22;7138;49.246;9.100;2023-02-23T04:13:59;8.10;99.90
14119;DHT22;7138;49.246;9.100;2023-02-23T04:16:29;8.10;99.90
14119;DHT22;7138;49.246;9.100;2023-02-23T04:18:58;8.10;99.90
14119;DHT22;7138;49.246;9.100;2023-02-23T04:21:24;8.10;99.90
14119;DHT22;7138;49.246;9.100;2023-02-23T04:23:50;8.20;99.90
14119;DHT22;7138;49.246;9.100;2023-02-23T04:26:16;8.20;99.90
14119;DHT22;7138;49.246;9.100;2023-02-23T04:28:42;8.20;99.90
14119;DHT22;7138;49.246;9.100;2023-02-23T04:31:08;8.20;99.90
14119;DHT22;7138;49.246;9.100;2023-02-23T04:33:33;8.20;99.90
14119;DHT22;7138;49.246;9.100;2023-02-23T04:36:01;8.20;99.90
14119;DHT22;7138;49.246;9.100;2023-02-23T04:38:26;8.20;99.90
14119;DHT22;7138;49.246;9.100;2023-02-23T04:40:52;8.20;99.90
14119;DHT22;7138;49.246;9.100;2023-02-23T04:43:18;8.20;99.90
14119;DHT22;7138;49.246;9.100;2023-02-23T04:45:44;8.20;99.90
14119;DHT22;7138;49.246;9.100;2023-02-23T04:48:10;8.10;99.90
14119;DHT22;7138;49.246;9.100;2023-02-23T04:50:36;8.20;99.90
14119;DHT22;7138;49.246;9.100;2023-02-23T04:53:03;8.20;99.90
14119;DHT22;7138;49.246;9.100;2023-02-23T04:55:30;8.20;99.90
14119;DHT22;7138;49.246;9.100;2023-02-23T04:57:58;8.10;99.90
14119;DHT22;7138;49.246;9.100;2023-02-23T05:00:25;8.10;99.90
14119;DHT22;7138;49.246;9.100;2023-02-23T05:02:51;8.10;99.90
14119;DHT22;7138;49.246;9.100;2023-02-23T05:05:18;8.10;99.90
14119;DHT22;7138;49.246;9.100;2023-02-23T05:07:43;8.10;99.90
14119;DHT22;7138;49.246;9.100;2023-02-23T05:10:11;8.10;99.90
14119;DHT22;7138;49.246;9.100;2023-02-23T05:12:37;8.10;99.90
14119;DHT22;7138;49.246;9.100;2023-02-23T05:15:04;8.10;99.90
14119;DHT22;7138;49.246;9.100;2023-02-23T05:17:30;8.10;99.90
14119;DHT22;7138;49.246;9.100;2023-02-23T05:19:56;8.10;99.90
14119;DHT22;7138;49.246;9.100;2023-02-23T05:22:22;8.10;99.90
14119;DHT22;7138;49.246;9.100;2023-02-23T05:24:48;8.00;99.90
14119;DHT22;7138;49.246;9.100;2023-02-23T05:27:15;8.10;99.90
14119;DHT22;7138;49.246;9.100;2023-02-23T05:29:42;8.00;99.90
14119;DHT22;7138;49.246;9.100;2023-02-23T05:32:08;8.10;99.90
14119;DHT22;7138;49.246;9.100;2023-02-23T05:34:33;8.00;99.90
14119;DHT22;7138;49.246;9.100;2023-02-23T05:36:59;8.00;99.90
14119;DHT22;7138;49.246;9.100;2023-02-23T05:39:25;8.00;99.90
14119;DHT22;7138;49.246;9.100;2023-02-23T05:41:51;8.00;99.90
14119;DHT22;7138;49.246;9.100;2023-02-23T05:44:18;8.00;99.90
14119;DHT22;7138;49.246;9.100;2023-02-23T05:46:44;8.00;99.90
14119;DHT22;7138;49.246;9.100;2023-02-23T05:49:11;8.00;99.90
14119;DHT22;7138;49.246;9.100;2023-02-23T05:51:37;8.00;99.90
14119;DHT22;7138;49.246;9.100;2023-02-23T05:54:04;8.00;99.90
14119;DHT22;7138;49.246;9.100;2023-02-23T05:56:30;8.00;99.90
14119;DHT22;7138;49.246;9.100;2023-02-23T05:58:57;8.00;99.90
14119;DHT22;7138;49.246;9.100;2023-02-23T06:01:26;8.00;99.90
14119;DHT22;7138;49.246;9.100;2023-02-23T06:03:52;8.00;99.90
14119;DHT22;7138;49.246;9.100;2023-02-23T06:06:18;8.00;99.90
14119;DHT22;7138;49.246;9.100;2023-02-23T06:08:44;8.00;99.90
14119;DHT22;7138;49.246;9.100;2023-02-23T06:11:11;8.00;99.90
14119;DHT22;7138;49.246;9.100;2023-02-23T06:13:37;8.00;99.90
14119;DHT22;7138;49.246;9.100;2023-02-23T06:16:03;7.90;99.90
14119;DHT22;7138;49.246;9.100;2023-02-23T06:18:31;8.00;99.90
14119;DHT22;7138;49.246;9.100;2023-02-23T06:20:58;8.00;99.90
14119;DHT22;7138;49.246;9.100;2023-02-23T06:23:25;8.00;99.90
14119;DHT22;7138;49.246;9.100;2023-02-23T06:25:51;8.00;99.90
14119;DHT22;7138;49.246;9.100;2023-02-23T06:28:17;8.00;99.90
14119;DHT22;7138;49.246;9.100;2023-02-23T06:30:43;8.00;99.90
14119;DHT22;7138;49.246;9.100;2023-02-23T06:33:11;8.00;99.90
14119;DHT22;7138;49.246;9.100;2023-02-23T06:35:38;8.00;99.90
14119;DHT22;7138;49.246;9.100;2023-02-23T06:38:04;8.00;99.90
14119;DHT22;7138;49.246;9.100;2023-02-23T06:40:30;8.00;99.90
14119;DHT22;7138;49.246;9.100;2023-02-23T06:42:56;8.00;99.90
14119;DHT22;7138;49.246;9.100;2023-02-23T06:45:22;8.00;99.90
14119;DHT22;7138;49.246;9.100;2023-02-23T06:47:48;8.00;99.90
14119;DHT22;7138;49.246;9.100;2023-02-23T06:50:14;8.00;99.90
14119;DHT22;7138;49.246;9.100;2023-02-23T06:52:42;8.00;99.90
14119;DHT22;7138;49.246;9.100;2023-02-23T06:55:08;8.10;99.90
14119;DHT22;7138;49.246;9.100;2023-02-23T06:57:34;8.00;99.90
14119;DHT22;7138;49.246;9.100;2023-02-23T07:00:01;8.00;99.90
14119;DHT22;7138;49.246;9.100;2023-02-23T07:02:28;8.10;99.90
14119;DHT22;7138;49.246;9.100;2023-02-23T07:04:53;8.10;99.90
14119;DHT22;7138;49.246;9.100;2023-02-23T07:07:20;8.10;99.90
14119;DHT22;7138;49.246;9.100;2023-02-23T07:09:47;8.10;99.90
14119;DHT22;7138;49.246;9.100;2023-02-23T07:12:13;8.10;99.90
14119;DHT22;7138;49.246;9.100;2023-02-23T07:14:39;8.10;99.90
14119;DHT22;7138;49.246;9.100;2023-02-23T07:17:05;8.10;99.90
14119;DHT22;7138;49.246;9.100;2023-02-23T07:19:32;8.10;99.90
14119;DHT22;7138;49.246;9.100;2023-02-23T07:21:58;8.10;99.90
14119;DHT22;7138;49.246;9.100;2023-02-23T07:24:24;8.20;99.90
14119;DHT22;7138;49.246;9.100;2023-02-23T07:26:51;8.20;99.90
14119;DHT22;7138;49.246;9.100;2023-02-23T07:29:17;8.20;99.90
14119;DHT22;7138;49.246;9.100;2023-02-23T07:31:43;8.20;99.90
14119;DHT22;7138;49.246;9.100;2023-02-23T07:34:09;8.20;99.90
14119;DHT22;7138;49.246;9.100;2023-02-23T07:36:36;8.30;99.90
14119;DHT22;7138;49.246;9.100;2023-02-23T07:39:03;8.30;99.90
14119;DHT22;7138;49.246;9.100;2023-02-23T07:41:29;8.40;99.90
14119;DHT22;7138;49.246;9.100;2023-02-23T07:43:57;8.40;99.90
14119;DHT22;7138;49.246;9.100;2023-02-23T07:46:23;8.40;99.90
14119;DHT22;7138;49.246;9.100;2023-02-23T07:48:49;8.40;99.90
14119;DHT22;7138;49.246;9.100;2023-02-23T07:51:16;8.50;99.90
14119;DHT22;7138;49.246;9.100;2023-02-23T07:57:22;8.70;99.90
14119;DHT22;7138;49.246;9.100;2023-02-23T07:59:50;8.90;99.90
14119;DHT22;7138;49.246;9.100;2023-02-23T08:02:16;8.90;99.90
14119;DHT22;7138;49.246;9.100;2023-02-23T08:04:42;9.00;99.90
14119;DHT22;7138;49.246;9.100;2023-02-23T08:07:08;9.10;99.90
14119;DHT22;7138;49.246;9.100;2023-02-23T08:09:34;9.20;99.90
14119;DHT22;7138;49.246;9.100;2023-02-23T08:12:00;9.20;99.90
14119;DHT22;7138;49.246;9.100;2023-02-23T08:14:27;9.30;99.90
14119;DHT22;7138;49.246;9.100;2023-02-23T08:16:54;9.50;99.90
14119;DHT22;7138;49.246;9.100;2023-02-23T08:19:20;9.60;99.90
14119;DHT22;7138;49.246;9.100;2023-02-23T08:21:49;9.60;99.90
14119;DHT22;7138;49.246;9.100;2023-02-23T08:24:15;9.70;99.90
14119;DHT22;7138;49.246;9.100;2023-02-23T08:26:41;9.70;99.90
14119;DHT22;7138;49.246;9.100;2023-02-23T08:29:07;9.70;99.90
14119;DHT22;7138;49.246;9.100;2023-02-23T08:31:34;9.80;99.90
14119;DHT22;7138;49.246;9.100;2023-02-23T08:34:01;9.80;99.90
14119;DHT22;7138;49.246;9.100;2023-02-23T08:36:27;9.80;99.90
14119;DHT22;7138;49.246;9.100;2023-02-23T08:38:53;9.80;99.90
14119;DHT22;7138;49.246;9.100;2023-02-23T08:41:19;9.70;99.90
14119;DHT22;7138;49.246;9.100;2023-02-23T08:43:46;9.80;99.90
14119;DHT22;7138;49.246;9.100;2023-02-23T08:46:13;9.80;99.90
14119;DHT22;7138;49.246;9.100;2023-02-23T08:48:41;9.70;99.90
14119;DHT22;7138;49.246;9.100;2023-02-23T08:51:08;9.80;99.90
14119;DHT22;7138;49.246;9.100;2023-02-23T08:53:34;9.80;99.90
14119;DHT22;7138;49.246;9.100;2023-02-23T08:56:02;9.70;99.90
14119;DHT22;7138;49.246;9.100;2023-02-23T08:58:31;9.70;99.90
14119;DHT22;7138;49.246;9.100;2023-02-23T09:00:57;9.70;99.90
14119;DHT22;7138;49.246;9.100;2023-02-23T09:03:27;9.80;99.90
14119;DHT22;7138;49.246;9.100;2023-02-23T09:05:55;9.80;99.90
14119;DHT22;7138;49.246;9.100;2023-02-23T09:08:23;9.80;99.90
14119;DHT22;7138;49.246;9.100;2023-02-23T09:10:49;9.90;99.90
14119;DHT22;7138;49.246;9.100;2023-02-23T09:13:15;9.90;99.90
14119;DHT22;7138;49.246;9.100;2023-02-23T09:15:41;9.90;99.90
14119;DHT22;7138;49.246;9.100;2023-02-23T09:18:10;9.90;99.90
14119;DHT22;7138;49.246;9.100;2023-02-23T09:20:42;9.90;99.90
14119;DHT22;7138;49.246;9.100;2023-02-23T09:23:09;9.80;99.90
14119;DHT22;7138;49.246;9.100;2023-02-23T09:25:39;9.80;99.90
14119;DHT22;7138;49.246;9.100;2023-02-23T09:28:09;9.80;99.90
14119;DHT22;7138;49.246;9.100;2023-02-23T09:30:38;10.00;99.90
14119;DHT22;7138;49.246;9.100;2023-02-23T09:33:04;10.40;99.90
14119;DHT22;7138;49.246;9.100;2023-02-23T09:35:32;10.80;99.90
14119;DHT22;7138;49.246;9.100;2023-02-23T09:38:01;11.10;99.90
14119;DHT22;7138;49.246;9.100;2023-02-23T09:40:34;11.30;99.90
14119;DHT22;7138;49.246;9.100;2023-02-23T09:43:12;11.30;99.90
14119;DHT22;7138;49.246;9.100;2023-02-23T09:45:42;11.70;99.90
14119;DHT22;7138;49.246;9.100;2023-02-23T09:48:15;12.10;99.90
14119;DHT22;7138;49.246;9.100;2023-02-23T09:50:47;12.30;99.90
14119;DHT22;7138;49.246;9.100;2023-02-23T09:53:26;12.10;99.90
14119;DHT22;7138;49.246;9.100;2023-02-23T09:55:57;12.20;99.90
14119;DHT22;7138;49.246;9.100;2023-02-23T09:58:26;12.00;99.90
14119;DHT22;7138;49.246;9.100;2023-02-23T10:01:08;11.80;99.90
14119;DHT22;7138;49.246;9.100;2023-02-23T10:03:51;11.70;99.90
14119;DHT22;7138;49.246;9.100;2023-02-23T10:06:22;11.80;99.90
14119;DHT22;7138;49.246;9.100;2023-02-23T10:09:05;11.80;99.90
14119;DHT22;7138;49.246;9.100;2023-02-23T10:11:44;12.00;99.90
14119;DHT22;7138;49.246;9.100;2023-02-23T10:14:47;12.10;99.90
14119;DHT22;7138;49.246;9.100;2023-02-23T10:17:49;12.10;99.90
14119;DHT22;7138;49.246;9.100;2023-02-23T10:20:30;12.00;99.90
14119;DHT22;7138;49.246;9.100;2023-02-23T10:23:08;11.90;99.90
14119;DHT22;7138;49.246;9.100;2023-02-23T10:25:42;11.70;99.90
14119;DHT22;7138;49.246;9.100;2023-02-23T10:28:12;11.70;99.90
14119;DHT22;7138;49.246;9.100;2023-02-23T10:30:42;11.70;99.90
14119;DHT22;7138;49.246;9.100;2023-02-23T10:33:13;11.80;99.90
14119;DHT22;7138;49.246;9.100;2023-02-23T10:35:44;12.00;99.90
14119;DHT22;7138;49.246;9.100;2023-02-23T10:38:14;12.00;99.90
14119;DHT22;7138;49.246;9.100;2023-02-23T10:40:43;11.90;99.90
14119;DHT22;7138;49.246;9.100;2023-02-23T10:43:12;11.90;99.90
14119;DHT22;7138;49.246;9.100;2023-02-23T10:45:44;12.10;99.90
14119;DHT22;7138;49.246;9.100;2023-02-23T10:48:16;12.50;99.90
14119;DHT22;7138;49.246;9.100;2023-02-23T10:50:44;13.10;99.90
14119;DHT22;7138;49.246;9.100;2023-02-23T10:53:17;13.00;99.90
14119;DHT22;7138;49.246;9.100;2023-02-23T10:55:59;12.90;99.90
14119;DHT22;7138;49.246;9.100;2023-02-23T10:58:28;13.20;99.90
14119;DHT22;7138;49.246;9.100;2023-02-23T11:00:58;13.50;99.90
14119;DHT22;7138;49.246;9.100;2023-02-23T11:03:29;13.70;99.90
14119;DHT22;7138;49.246;9.100;2023-02-23T11:05:58;13.70;99.90
14119;DHT22;7138;49.246;9.100;2023-02-23T11:08:30;13.70;99.90
14119;DHT22;7138;49.246;9.100;2023-02-23T11:11:16;13.40;99.90
14119;DHT22;7138;49.246;9.100;2023-02-23T11:13:50;13.70;99.90
14119;DHT22;7138;49.246;9.100;2023-02-23T11:16:19;13.70;99.90
14119;DHT22;7138;49.246;9.100;2023-02-23T11:18:50;13.70;99.90
14119;DHT22;7138;49.246;9.100;2023-02-23T11:21:22;14.00;99.90
14119;DHT22;7138;49.246;9.100;2023-02-23T11:23:52;14.40;99.90
14119;DHT22;7138;49.246;9.100;2023-02-23T11:26:28;14.30;99.90
14119;DHT22;7138;49.246;9.100;2023-02-23T11:28:59;14.40;99.90
14119;DHT22;7138;49.246;9.100;2023-02-23T11:31:33;14.70;99.90
14119;DHT22;7138;49.246;9.100;2023-02-23T11:34:02;14.80;99.90
14119;DHT22;7138;49.246;9.100;2023-02-23T11:36:31;14.80;99.90
14119;DHT22;7138;49.246;9.100;2023-02-23T11:39:13;15.40;99.90
14119;DHT22;7138;49.246;9.100;2023-02-23T11:41:44;15.50;99.90
14119;DHT22;7138;49.246;9.100;2023-02-23T11:44:20;15.70;99.90
14119;DHT22;7138;49.246;9.100;2023-02-23T11:46:50;15.70;99.90
14119;DHT22;7138;49.246;9.100;2023-02-23T11:49:20;15.20;99.90
14119;DHT22;7138;49.246;9.100;2023-02-23T11:51:51;14.40;99.90
14119;DHT22;7138;49.246;9.100;2023-02-23T11:54:22;13.80;99.90
14119;DHT22;7138;49.246;9.100;2023-02-23T11:56:51;13.10;99.90
14119;DHT22;7138;49.246;9.100;2023-02-23T11:59:25;13.10;99.90
14119;DHT22;7138;49.246;9.100;2023-02-23T12:02:02;13.10;99.90
14119;DHT22;7138;49.246;9.100;2023-02-23T12:04:33;13.00;99.90
14119;DHT22;7138;49.246;9.100;2023-02-23T12:07:22;13.20;99.90
14119;DHT22;7138;49.246;9.100;2023-02-23T12:10:00;13.30;99.90
14119;DHT22;7138;49.246;9.100;2023-02-23T12:12:37;13.50;99.90
14119;DHT22;7138;49.246;9.100;2023-02-23T12:15:13;13.70;99.90
14119;DHT22;7138;49.246;9.100;2023-02-23T12:17:50;13.80;99.90
14119;DHT22;7138;49.246;9.100;2023-02-23T12:20:24;13.60;99.90
14119;DHT22;7138;49.246;9.100;2023-02-23T12:22:57;13.60;99.90
14119;DHT22;7138;49.246;9.100;2023-02-23T12:25:31;13.60;99.90
14119;DHT22;7138;49.246;9.100;2023-02-23T12:28:03;13.60;99.90
14119;DHT22;7138;49.246;9.100;2023-02-23T12:30:40;13.60;99.90
14119;DHT22;7138;49.246;9.100;2023-02-23T12:33:15;13.70;99.90
14119;DHT22;7138;49.246;9.100;2023-02-23T12:35:49;13.50;99.90
14119;DHT22;7138;49.246;9.100;2023-02-23T12:38:25;13.60;99.90
14119;DHT22;7138;49.246;9.100;2023-02-23T12:41:02;13.70;99.90
14119;DHT22;7138;49.246;9.100;2023-02-23T12:43:39;14.20;99.90
14119;DHT22;7138;49.246;9.100;2023-02-23T12:46:17;14.20;99.90
14119;DHT22;7138;49.246;9.100;2023-02-23T12:48:54;14.50;99.90
14119;DHT22;7138;49.246;9.100;2023-02-23T12:51:31;14.80;99.90
14119;DHT22;7138;49.246;9.100;2023-02-23T12:54:00;14.90;99.90
14119;DHT22;7138;49.246;9.100;2023-02-23T12:56:42;14.70;99.90
14119;DHT22;7138;49.246;9.100;2023-02-23T13:02:27;14.70;99.90
14119;DHT22;7138;49.246;9.100;2023-02-23T13:05:12;15.20;99.90
14119;DHT22;7138;49.246;9.100;2023-02-23T13:07:54;15.40;99.90
14119;DHT22;7138;49.246;9.100;2023-02-23T13:10:33;15.70;99.90
14119;DHT22;7138;49.246;9.100;2023-02-23T13:13:18;15.80;99.90
14119;DHT22;7138;49.246;9.100;2023-02-23T13:15:59;15.30;99.90
14119;DHT22;7138;49.246;9.100;2023-02-23T13:18:33;15.10;99.90
14119;DHT22;7138;49.246;9.100;2023-02-23T13:21:14;15.40;99.90
14119;DHT22;7138;49.246;9.100;2023-02-23T13:23:53;15.20;99.90
14119;DHT22;7138;49.246;9.100;2023-02-23T13:26:30;14.90;99.90
14119;DHT22;7138;49.246;9.100;2023-02-23T13:29:04;13.90;99.90
14119;DHT22;7138;49.246;9.100;2023-02-23T13:31:37;13.90;99.90
14119;DHT22;7138;49.246;9.100;2023-02-23T13:34:09;13.60;99.90
14119;DHT22;7138;49.246;9.100;2023-02-23T13:36:41;13.40;99.90
14119;DHT22;7138;49.246;9.100;2023-02-23T13:39:42;13.50;99.90
14119;DHT22;7138;49.246;9.100;2023-02-23T13:42:28;13.40;99.90
14119;DHT22;7138;49.246;9.100;2023-02-23T13:45:11;13.30;99.90
14119;DHT22;7138;49.246;9.100;2023-02-23T13:47:52;13.50;99.90
14119;DHT22;7138;49.246;9.100;2023-02-23T13:50:27;13.60;99.90
14119;DHT22;7138;49.246;9.100;2023-02-23T13:53:00;13.80;99.90
14119;DHT22;7138;49.246;9.100;2023-02-23T13:55:36;13.70;99.90
14119;DHT22;7138;49.246;9.100;2023-02-23T13:58:14;13.90;99.90
14119;DHT22;7138;49.246;9.100;2023-02-23T14:00:42;14.00;99.90
14119;DHT22;7138;49.246;9.100;2023-02-23T14:03:22;13.90;99.90
14119;DHT22;7138;49.246;9.100;2023-02-23T14:05:53;14.00;99.90
14119;DHT22;7138;49.246;9.100;2023-02-23T14:08:34;13.90;99.90
14119;DHT22;7138;49.246;9.100;2023-02-23T14:11:02;14.00;99.90
14119;DHT22;7138;49.246;9.100;2023-02-23T14:13:30;14.00;99.90
14119;DHT22;7138;49.246;9.100;2023-02-23T14:16:10;14.00;99.90
14119;DHT22;7138;49.246;9.100;2023-02-23T14:19:10;13.90;99.90
14119;DHT22;7138;49.246;9.100;2023-02-23T14:21:46;14.00;99.90
14119;DHT22;7138;49.246;9.100;2023-02-23T14:24:22;14.00;99.90
14119;DHT22;7138;49.246;9.100;2023-02-23T14:27:21;14.10;99.90
14119;DHT22;7138;49.246;9.100;2023-02-23T14:30:23;14.10;99.90
14119;DHT22;7138;49.246;9.100;2023-02-23T14:32:51;13.80;99.90
14119;DHT22;7138;49.246;9.100;2023-02-23T14:35:41;14.10;99.90
14119;DHT22;7138;49.246;9.100;2023-02-23T14:38:14;14.20;99.90
14119;DHT22;7138;49.246;9.100;2023-02-23T14:40:59;13.90;99.90
14119;DHT22;7138;49.246;9.100;2023-02-23T14:43:46;13.70;99.90
14119;DHT22;7138;49.246;9.100;2023-02-23T14:46:19;13.70;99.90
14119;DHT22;7138;49.246;9.100;2023-02-23T14:48:59;13.70;99.90
14119;DHT22;7138;49.246;9.100;2023-02-23T14:51:35;13.70;99.90
14119;DHT22;7138;49.246;9.100;2023-02-23T14:54:11;13.60;99.90
14119;DHT22;7138;49.246;9.100;2023-02-23T14:56:46;13.60;99.90
14119;DHT22;7138;49.246;9.100;2023-02-23T14:59:18;13.50;99.90
14119;DHT22;7138;49.246;9.100;2023-02-23T15:01:46;13.30;99.90
14119;DHT22;7138;49.246;9.100;2023-02-23T15:04:17;13.20;99.90
14119;DHT22;7138;49.246;9.100;2023-02-23T15:06:45;13.20;99.90
14119;DHT22;7138;49.246;9.100;2023-02-23T15:09:17;13.10;99.90
14119;DHT22;7138;49.246;9.100;2023-02-23T15:11:49;13.20;99.90
14119;DHT22;7138;49.246;9.100;2023-02-23T15:14:19;13.10;99.90
14119;DHT22;7138;49.246;9.100;2023-02-23T15:16:48;13.00;99.90
14119;DHT22;7138;49.246;9.100;2023-02-23T15:19:32;12.90;99.90
14119;DHT22;7138;49.246;9.100;2023-02-23T15:22:02;12.80;99.90
14119;DHT22;7138;49.246;9.100;2023-02-23T15:24:35;12.90;99.90
14119;DHT22;7138;49.246;9.100;2023-02-23T15:27:15;12.80;99.90
14119;DHT22;7138;49.246;9.100;2023-02-23T15:29:43;12.80;99.90
14119;DHT22;7138;49.246;9.100;2023-02-23T15:32:12;12.80;99.90
14119;DHT22;7138;49.246;9.100;2023-02-23T15:34:43;12.80;99.90
14119;DHT22;7138;49.246;9.100;2023-02-23T15:37:16;12.70;99.90
14119;DHT22;7138;49.246;9.100;2023-02-23T15:39:52;12.80;99.90
14119;DHT22;7138;49.246;9.100;2023-02-23T15:42:24;12.70;99.90
14119;DHT22;7138;49.246;9.100;2023-02-23T15:44:58;12.60;99.90
14119;DHT22;7138;49.246;9.100;2023-02-23T15:47:27;12.60;99.90
14119;DHT22;7138;49.246;9.100;2023-02-23T15:50:07;12.60;99.90
14119;DHT22;7138;49.246;9.100;2023-02-23T15:52:45;12.50;99.90
14119;DHT22;7138;49.246;9.100;2023-02-23T15:55:20;12.50;99.90
14119;DHT22;7138;49.246;9.100;2023-02-23T15:57:56;12.50;99.90
14119;DHT22;7138;49.246;9.100;2023-02-23T16:00:28;12.50;99.90
14119;DHT22;7138;49.246;9.100;2023-02-23T16:02:59;12.50;99.90
14119;DHT22;7138;49.246;9.100;2023-02-23T16:05:28;12.40;99.90
14119;DHT22;7138;49.246;9.100;2023-02-23T16:08:02;12.40;99.90
14119;DHT22;7138;49.246;9.100;2023-02-23T16:10:39;12.30;99.90
14119;DHT22;7138;49.246;9.100;2023-02-23T16:13:11;12.30;99.90
14119;DHT22;7138;49.246;9.100;2023-02-23T16:15:40;12.30;99.90
14119;DHT22;7138;49.246;9.100;2023-02-23T16:18:12;12.20;99.90
14119;DHT22;7138;49.246;9.100;2023-02-23T16:20:45;12.20;99.90
14119;DHT22;7138;49.246;9.100;2023-02-23T16:23:18;12.20;99.90
14119;DHT22;7138;49.246;9.100;2023-02-23T16:25:52;12.20;99.90
14119;DHT22;7138;49.246;9.100;2023-02-23T16:28:26;12.20;99.90
14119;DHT22;7138;49.246;9.100;2023-02-23T16:30:57;12.00;99.90
14119;DHT22;7138;49.246;9.100;2023-02-23T16:33:26;12.00;99.90
14119;DHT22;7138;49.246;9.100;2023-02-23T16:36:07;12.00;99.90
14119;DHT22;7138;49.246;9.100;2023-02-23T16:38:40;11.90;99.90
14119;DHT22;7138;49.246;9.100;2023-02-23T16:41:17;11.80;99.90
14119;DHT22;7138;49.246;9.100;2023-02-23T16:43:48;11.90;99.90
14119;DHT22;7138;49.246;9.100;2023-02-23T16:46:16;11.80;99.90
14119;DHT22;7138;49.246;9.100;2023-02-23T16:48:42;11.80;99.90
14119;DHT22;7138;49.246;9.100;2023-02-23T16:51:12;11.80;99.90